Time;durP1;ratioP1;P1;durP2;ratioP2;P2;SDS_P1;SDS_P2;PMS_P1;PMS_P2;Temp;Humidity;BMP_temperature;BMP_pressure;BME280_temperature;BME280_humidity;BME280_pressure;Samples;Min_cycle;Max_cycle;Signal;HPM_P1;HPM_P2
2022/08/29 00:01:45;;;;;;;5.45;3.33;;;;;;;17.74;65.58;93522.00;5045949;28;20082;-70
2022/08/29 00:04:10;;;;;;;3.67;3.20;;;;;;;17.80;65.30;93517.56;5045824;28;20415;-70
2022/08/29 00:06:36;;;;;;;4.88;3.90;;;;;;;17.73;65.30;93515.72;5044802;28;20056;-69
2022/08/29 00:09:02;;;;;;;3.92;3.53;;;;;;;17.80;65.49;93516.88;5045067;28;20056;-70
2022/08/29 00:11:27;;;;;;;4.35;3.25;;;;;;;17.65;65.96;93517.94;5047813;28;20109;-70
2022/08/29 00:13:53;;;;;;;6.00;4.25;;;;;;;17.69;66.02;93523.09;5049559;28;20119;-69
2022/08/29 00:16:18;;;;;;;5.93;4.05;;;;;;;17.20;67.78;93518.94;5050082;28;20060;-69
2022/08/29 00:18:44;;;;;;;6.05;3.55;;;;;;;17.22;67.75;93513.50;5050482;28;20477;-69
2022/08/29 00:21:09;;;;;;;3.47;3.03;;;;;;;17.18;68.04;93516.00;5051855;28;20033;-69
2022/08/29 00:23:35;;;;;;;3.78;3.33;;;;;;;17.40;67.18;93515.50;5052843;28;20040;-69
2022/08/29 00:26:01;;;;;;;3.95;3.40;;;;;;;17.53;66.96;93508.00;5052577;28;20112;-69
2022/08/29 00:28:26;;;;;;;3.70;3.20;;;;;;;17.64;66.63;93522.06;5051656;28;20111;-70
2022/08/29 00:30:52;;;;;;;8.55;7.93;;;;;;;17.48;66.93;93506.25;5052541;28;20040;-70
2022/08/29 00:33:17;;;;;;;21.92;20.63;;;;;;;17.43;67.00;93514.31;5052531;28;20031;-69
2022/08/29 00:35:44;;;;;;;5.00;3.85;;;;;;;17.49;67.02;93522.38;5052473;28;20032;-70
2022/08/29 00:38:11;;;;;;;5.60;3.70;;;;;;;17.49;66.96;93508.44;5050494;28;20115;-69
2022/08/29 00:40:41;;;;;;;3.95;3.45;;;;;;;17.44;67.19;93507.41;5051140;28;20471;-69
2022/08/29 00:43:08;;;;;;;3.85;3.47;;;;;;;17.41;67.00;93508.59;5050431;28;20491;-69
2022/08/29 00:45:35;;;;;;;4.90;3.60;;;;;;;17.37;67.18;93502.00;5052077;28;20040;-69
2022/08/29 00:48:11;;;;;;;4.32;3.45;;;;;;;17.35;66.86;93497.00;5051080;28;20025;-69
2022/08/29 00:50:44;;;;;;;3.70;3.30;;;;;;;17.26;66.78;93500.56;5050984;28;20132;-71
2022/08/29 00:53:12;;;;;;;3.70;3.28;;;;;;;17.09;66.42;93492.38;5051024;28;20083;-70
2022/08/29 00:55:39;;;;;;;6.05;3.53;;;;;;;17.26;65.98;93508.22;5051012;28;20021;-71
2022/08/29 00:58:20;;;;;;;4.30;2.88;;;;;;;17.09;66.74;93508.38;5050756;28;20056;-71
2022/08/29 01:00:46;;;;;;;4.38;4.05;;;;;;;17.04;66.70;93501.06;5084313;28;20024;-71
2022/08/29 01:03:12;;;;;;;3.88;3.17;;;;;;;17.01;66.77;93502.22;5084407;28;20025;-71
2022/08/29 01:17:33;;;;;;;3.88;3.55;;;;;;;17.74;63.96;93505.25;5128380;27;20876;-62
2022/08/29 01:20:06;;;;;;;5.97;3.40;;;;;;;17.55;64.43;93503.28;5116583;28;20111;-60
2022/08/29 01:22:38;;;;;;;4.72;3.60;;;;;;;17.35;65.18;93499.06;5101153;28;20101;-60
2022/08/29 01:25:08;;;;;;;3.50;3.13;;;;;;;17.32;65.44;93505.84;5087342;28;20115;-59
2022/08/29 01:27:36;;;;;;;4.53;3.40;;;;;;;17.19;65.85;93509.84;5086573;28;20032;-59
2022/08/29 01:30:01;;;;;;;3.90;3.42;;;;;;;16.74;67.09;93502.41;5086482;28;20025;-58
2022/08/29 01:32:27;;;;;;;5.80;3.85;;;;;;;16.58;68.03;93507.56;5087530;28;20392;-57
2022/08/29 01:34:52;;;;;;;4.28;3.15;;;;;;;16.75;67.24;93503.13;5087238;28;20016;-58
2022/08/29 01:37:18;;;;;;;3.78;3.35;;;;;;;16.68;67.18;93496.41;5089439;28;20150;-59
2022/08/29 01:39:44;;;;;;;4.40;3.35;;;;;;;16.63;67.39;93495.38;5099850;28;20021;-59
2022/08/29 01:42:17;;;;;;;3.72;3.42;;;;;;;16.66;67.00;93497.00;5087149;28;20020;-58
2022/08/29 01:44:51;;;;;;;4.10;3.45;;;;;;;16.75;66.84;93489.94;5086966;28;20028;-59
2022/08/29 01:47:17;;;;;;;5.65;3.65;;;;;;;16.80;67.31;93490.97;5087356;28;20404;-59
2022/08/29 01:49:42;;;;;;;3.78;3.47;;;;;;;16.64;67.52;93488.47;5087225;28;20058;-58
2022/08/29 01:52:08;;;;;;;4.97;4.50;;;;;;;16.59;67.78;93492.28;5086937;28;20032;-60
2022/08/29 01:54:34;;;;;;;4.72;3.78;;;;;;;16.62;67.68;93491.13;5086852;28;20024;-60
2022/08/29 01:57:00;;;;;;;6.05;4.45;;;;;;;16.52;67.87;93484.81;5087142;28;20024;-60
2022/08/29 01:59:27;;;;;;;4.40;3.40;;;;;;;16.38;67.80;93466.31;5087071;28;20024;-61
2022/08/29 02:01:57;;;;;;;3.35;2.97;;;;;;;16.33;68.24;93473.63;5086572;28;20028;-60
2022/08/29 02:04:22;;;;;;;5.10;3.60;;;;;;;16.43;68.09;93490.34;5086638;28;20024;-60
2022/08/29 02:06:48;;;;;;;3.63;3.20;;;;;;;16.47;68.00;93493.44;5086887;28;20021;-60
2022/08/29 02:09:13;;;;;;;3.72;3.15;;;;;;;16.44;68.20;93498.13;5091352;28;20463;-60
2022/08/29 02:11:39;;;;;;;4.03;3.63;;;;;;;16.44;68.15;93495.34;5096102;28;20032;-60
2022/08/29 02:14:05;;;;;;;6.32;3.30;;;;;;;16.40;68.18;93503.41;5097281;28;20455;-60
2022/08/29 02:16:31;;;;;;;5.40;3.92;;;;;;;16.42;68.48;93495.19;5090832;28;20021;-59
2022/08/29 02:18:56;;;;;;;3.47;3.15;;;;;;;16.47;68.01;93502.53;5082271;28;20024;-60
2022/08/29 02:21:25;;;;;;;3.78;3.35;;;;;;;16.51;67.61;93502.84;5082368;28;20489;-60
2022/08/29 02:23:52;;;;;;;3.35;3.05;;;;;;;16.48;67.08;93504.00;5079988;28;20103;-60
2022/08/29 02:26:19;;;;;;;5.90;3.67;;;;;;;16.34;67.39;93500.19;5081666;28;20016;-59
2022/08/29 02:28:45;;;;;;;44.10;41.55;;;;;;;16.22;68.05;93504.13;5082438;28;20031;-60
2022/08/29 02:31:11;;;;;;;3.45;3.08;;;;;;;15.99;68.25;93470.38;5080973;28;20409;-59
2022/08/29 02:33:37;;;;;;;3.30;3.00;;;;;;;16.22;68.54;93498.56;5074732;28;20054;-59
2022/08/29 02:48:43;;;;;;;5.85;4.00;;;;;;;16.66;67.03;93497.00;5128393;27;21024;-62
2022/08/29 02:51:09;;;;;;;6.18;4.00;;;;;;;16.48;67.24;93486.56;5128385;27;20028;-61
2022/08/29 02:53:35;;;;;;;3.63;3.10;;;;;;;16.51;67.30;93499.34;5128357;27;20072;-61
2022/08/29 02:56:01;;;;;;;5.32;3.83;;;;;;;16.37;68.15;93499.00;5088524;27;20078;-60
2022/08/29 02:58:26;;;;;;;5.35;4.05;;;;;;;16.28;68.03;93496.97;5087593;28;20016;-59
2022/08/29 03:00:52;;;;;;;3.65;3.35;;;;;;;16.25;68.45;93508.53;5087676;28;20507;-61
2022/08/29 03:03:18;;;;;;;3.97;3.58;;;;;;;16.25;68.66;93508.53;5087588;28;20024;-61
2022/08/29 03:05:44;;;;;;;3.83;3.42;;;;;;;15.97;69.47;93509.19;5087567;28;20416;-62
2022/08/29 03:08:12;;;;;;;3.47;3.17;;;;;;;16.02;69.22;93510.97;5105734;28;20019;-62
2022/08/29 03:10:39;;;;;;;4.10;3.53;;;;;;;15.97;69.37;93523.13;5107223;28;20102;-62
2022/08/29 03:13:04;;;;;;;6.68;4.05;;;;;;;15.81;69.92;93514.28;5087583;28;20024;-61
2022/08/29 03:15:30;;;;;;;5.40;4.70;;;;;;;15.91;69.44;93515.06;5089593;28;20092;-61
2022/08/29 03:17:56;;;;;;;3.67;3.08;;;;;;;15.51;70.24;93525.91;5106751;28;20024;-60
2022/08/29 03:20:23;;;;;;;5.15;3.47;;;;;;;15.43;70.16;93508.56;5094826;28;20051;-59
2022/08/29 03:22:49;;;;;;;5.65;3.70;;;;;;;15.62;69.17;93526.09;5087169;28;20031;-60
2022/08/29 03:25:16;;;;;;;4.28;3.25;;;;;;;15.68;68.16;93525.84;5088607;28;20461;-60
2022/08/29 03:27:41;;;;;;;4.53;3.42;;;;;;;15.60;68.40;93527.97;5089765;28;20008;-60
2022/08/29 03:30:09;;;;;;;5.60;4.05;;;;;;;15.50;69.18;93527.97;5087106;28;20020;-61
2022/08/29 03:32:35;;;;;;;4.10;3.70;;;;;;;15.59;69.00;93524.47;5086994;28;20092;-61
2022/08/29 03:35:01;;;;;;;3.50;3.03;;;;;;;15.71;68.83;93530.22;5086732;28;20649;-60
2022/08/29 03:37:26;;;;;;;3.83;2.67;;;;;;;15.79;68.65;93533.63;5086900;28;20024;-60
2022/08/29 03:39:53;;;;;;;4.18;3.03;;;;;;;15.71;68.81;93530.22;5086613;28;20401;-61
2022/08/29 03:42:19;;;;;;;4.32;3.92;;;;;;;15.71;68.55;93530.22;5086585;28;20031;-61
2022/08/29 03:44:44;;;;;;;3.55;3.25;;;;;;;15.77;68.33;93534.22;5093793;28;20055;-61
2022/08/29 03:47:10;;;;;;;4.32;3.47;;;;;;;15.78;68.19;93532.16;5086899;28;20083;-63
2022/08/29 03:49:35;;;;;;;3.50;3.13;;;;;;;15.74;68.27;93529.78;5071687;28;20030;-64
2022/08/29 03:52:01;;;;;;;3.13;2.83;;;;;;;15.60;68.80;93539.13;5078693;28;20058;-63
2022/08/29 03:54:27;;;;;;;7.07;3.78;;;;;;;15.63;68.57;93540.75;5091041;28;20532;-63
2022/08/29 03:56:52;;;;;;;5.47;3.88;;;;;;;15.66;68.93;93548.66;5081466;28;20108;-65
2022/08/29 03:59:19;;;;;;;7.93;3.75;;;;;;;15.65;68.91;93546.47;5078454;28;20027;-65
2022/08/29 04:01:47;;;;;;;3.95;3.35;;;;;;;15.51;69.13;93531.47;5075858;28;20027;-62
2022/08/29 04:05:05;;;;;;;4.38;3.55;;;;;;;15.51;69.34;93550.94;5080363;28;20024;-63
2022/08/29 04:07:00;;;;;;;4.53;3.75;;;;;;;15.60;69.06;93556.56;5083254;28;20028;-63
2022/08/29 04:09:27;;;;;;;8.10;5.63;;;;;;;15.64;69.25;93554.09;5085245;28;20394;-61
2022/08/29 04:11:52;;;;;;;8.43;7.57;;;;;;;15.62;69.21;93569.88;5095941;28;20520;-61
2022/08/29 04:14:19;;;;;;;5.20;4.72;;;;;;;15.50;70.01;93566.91;5107974;28;20027;-61
2022/08/29 04:16:47;;;;;;;6.05;5.07;;;;;;;15.57;70.03;93570.91;5112483;28;20024;-61
2022/08/29 04:19:12;;;;;;;6.63;5.60;;;;;;;15.50;70.60;93566.91;5089889;28;20028;-61
2022/08/29 04:21:38;;;;;;;6.30;4.10;;;;;;;15.54;70.44;93566.50;5072614;28;20020;-61
2022/08/29 04:24:03;;;;;;;5.75;5.10;;;;;;;15.63;70.60;93565.81;5071487;28;20020;-62
2022/08/29 04:26:29;;;;;;;5.82;4.10;;;;;;;15.43;71.05;93561.41;5071749;28;20501;-61
2022/08/29 04:28:54;;;;;;;5.50;4.65;;;;;;;15.55;71.31;93567.97;5070754;28;20438;-60
2022/08/29 04:31:20;;;;;;;10.13;3.65;;;;;;;15.45;71.22;93569.94;5071062;28;20484;-63
2022/08/29 04:33:50;;;;;;;8.23;3.30;;;;;;;15.66;69.49;93572.97;5071181;28;20044;-63
2022/08/29 04:36:16;;;;;;;3.65;3.30;;;;;;;15.69;69.73;93571.84;5070195;28;20100;-64
2022/08/29 04:38:41;;;;;;;4.15;3.75;;;;;;;15.65;69.31;93571.53;5070562;28;20607;-66
2022/08/29 04:41:09;;;;;;;8.00;4.13;;;;;;;15.76;69.12;93565.41;5070145;28;20031;-66
2022/08/29 04:43:35;;;;;;;4.45;3.47;;;;;;;15.83;69.06;93572.94;5091242;28;20093;-65
2022/08/29 04:46:00;;;;;;;5.25;4.07;;;;;;;15.94;68.83;93575.13;5081039;28;20459;-65
2022/08/29 04:48:26;;;;;;;6.68;3.55;;;;;;;15.95;69.07;93573.84;5071148;28;20059;-65
2022/08/29 04:50:57;;;;;;;4.22;3.70;;;;;;;15.91;69.58;93574.28;5071080;28;20044;-65
2022/08/29 04:53:23;;;;;;;4.78;3.90;;;;;;;15.94;69.62;93589.06;5072107;28;20028;-65
2022/08/29 04:56:15;;;;;;;4.05;3.65;;;;;;;15.87;69.68;93579.50;5071607;28;20031;-65
2022/08/29 04:58:42;;;;;;;5.03;4.38;;;;;;;15.77;70.16;93569.66;5067507;28;20475;-65
2022/08/29 05:01:07;;;;;;;4.38;3.63;;;;;;;15.76;70.65;93582.88;5070806;28;20048;-65
2022/08/29 05:03:33;;;;;;;5.30;3.75;;;;;;;15.80;70.86;93585.94;5070356;28;20690;-65
2022/08/29 05:06:01;;;;;;;5.15;4.40;;;;;;;15.97;70.63;93584.38;5069545;28;20548;-66
2022/08/29 05:08:30;;;;;;;4.72;4.18;;;;;;;16.04;70.86;93586.31;5069370;28;20032;-66
2022/08/29 05:10:55;;;;;;;4.45;4.05;;;;;;;16.13;70.96;93585.63;5068840;28;20111;-65
2022/08/29 05:13:21;;;;;;;6.40;4.28;;;;;;;16.15;71.05;93569.81;5069024;28;20541;-60
2022/08/29 05:15:49;;;;;;;14.70;13.77;;;;;;;16.38;70.96;93581.28;5069510;28;20622;-60
2022/08/29 05:18:16;;;;;;;5.90;3.92;;;;;;;16.49;70.99;93582.78;5068845;28;20024;-62
2022/08/29 05:20:43;;;;;;;6.82;4.63;;;;;;;16.65;71.23;93579.13;5067429;28;20043;-62
2022/08/29 05:23:09;;;;;;;5.78;4.72;;;;;;;16.67;71.35;93576.50;5068661;28;20021;-62
2022/08/29 05:25:35;;;;;;;4.95;4.50;;;;;;;16.94;70.14;93589.56;5068814;28;20085;-61
2022/08/29 05:28:01;;;;;;;5.15;4.65;;;;;;;17.01;69.68;93592.22;5068649;28;20023;-62
2022/08/29 05:30:27;;;;;;;6.00;5.30;;;;;;;17.10;69.61;93594.28;5069333;28;20020;-62
2022/08/29 05:32:53;;;;;;;5.13;4.63;;;;;;;17.23;69.82;93587.50;5088533;28;20440;-61
2022/08/29 05:35:19;;;;;;;6.57;5.07;;;;;;;17.25;69.93;93590.44;5088548;28;20028;-62
2022/08/29 05:37:45;;;;;;;4.57;4.18;;;;;;;17.39;70.23;93592.19;5080461;28;20039;-64
2022/08/29 05:40:10;;;;;;;9.00;5.05;;;;;;;17.55;69.87;93595.41;5073896;28;20076;-64
2022/08/29 05:42:36;;;;;;;5.15;4.57;;;;;;;17.71;70.12;93593.03;5077949;28;20089;-63
2022/08/29 05:45:03;;;;;;;6.63;5.20;;;;;;;17.81;70.05;93596.53;5076221;28;20055;-62
2022/08/29 05:47:30;;;;;;;5.80;4.90;;;;;;;17.90;70.07;93598.56;5072462;28;20048;-64
2022/08/29 05:49:55;;;;;;;5.10;4.60;;;;;;;18.06;70.07;93596.88;5077143;28;20108;-63
2022/08/29 05:52:21;;;;;;;6.75;5.25;;;;;;;18.17;70.17;93596.22;5076367;28;20039;-63
2022/08/29 05:54:47;;;;;;;9.85;4.40;;;;;;;18.29;70.15;93599.84;5078556;28;20097;-63
2022/08/29 05:57:16;;;;;;;7.03;4.75;;;;;;;18.39;70.01;93597.75;5078379;28;20040;-64
2022/08/29 05:59:41;;;;;;;5.60;4.93;;;;;;;18.51;70.38;93593.00;5079533;28;20039;-64
2022/08/29 06:02:08;;;;;;;4.93;4.43;;;;;;;18.65;69.49;93596.72;5068412;28;20480;-61
2022/08/29 06:04:34;;;;;;;7.47;5.25;;;;;;;18.78;68.92;93601.06;5068348;28;20416;-62
2022/08/29 06:07:00;;;;;;;6.53;4.47;;;;;;;18.76;69.15;93593.28;5081635;28;20020;-60
2022/08/29 06:09:25;;;;;;;7.70;4.65;;;;;;;18.91;68.74;93606.13;5088252;28;20089;-60
2022/08/29 06:11:52;;;;;;;5.53;4.65;;;;;;;19.03;68.03;93597.78;5087707;28;20156;-60
2022/08/29 06:14:18;;;;;;;4.28;3.53;;;;;;;19.21;67.99;93599.69;5088064;28;20514;-62
2022/08/29 06:16:44;;;;;;;4.97;4.47;;;;;;;19.31;67.98;93600.38;5088074;28;20404;-61
2022/08/29 06:19:10;;;;;;;6.18;3.90;;;;;;;19.46;67.33;93594.34;5074514;28;20024;-61
2022/08/29 06:21:36;;;;;;;4.47;4.07;;;;;;;19.64;65.85;93598.28;5086519;28;20032;-62
2022/08/29 06:24:02;;;;;;;4.78;4.35;;;;;;;19.64;65.95;93584.28;5087868;28;20039;-62
2022/08/29 06:26:27;;;;;;;5.20;4.45;;;;;;;19.88;64.08;93601.16;5071577;28;20021;-63
2022/08/29 06:28:53;;;;;;;4.88;4.38;;;;;;;20.02;63.61;93604.81;5067444;28;20386;-62
2022/08/29 06:31:20;;;;;;;8.23;5.18;;;;;;;20.10;63.61;93599.69;5067425;28;20086;-60
2022/08/29 06:33:49;;;;;;;5.55;3.97;;;;;;;20.21;63.10;93599.75;5072492;28;20192;-63
2022/08/29 06:36:14;;;;;;;5.10;4.50;;;;;;;20.34;63.07;93601.22;5077084;28;20090;-63
2022/08/29 06:38:40;;;;;;;4.55;4.05;;;;;;;20.46;63.05;93596.34;5075670;28;20521;-64
2022/08/29 06:41:09;;;;;;;5.47;4.45;;;;;;;20.61;63.27;93606.31;5077247;28;20512;-65
2022/08/29 06:43:34;;;;;;;4.95;4.20;;;;;;;20.75;62.86;93599.47;5076936;28;20513;-64
2022/08/29 06:46:00;;;;;;;8.15;3.83;;;;;;;20.96;62.61;93604.19;5075075;28;20047;-62
2022/08/29 06:48:25;;;;;;;5.22;3.80;;;;;;;21.12;61.94;93597.47;5072285;28;20516;-62
2022/08/29 06:50:54;;;;;;;4.65;4.25;;;;;;;21.21;60.78;93603.53;5067436;28;20039;-62
2022/08/29 06:53:20;;;;;;;5.22;4.43;;;;;;;21.36;61.46;93598.09;5067412;28;20029;-62
2022/08/29 06:55:46;;;;;;;3.95;3.08;;;;;;;21.57;61.30;93603.50;5067218;28;20040;-63
2022/08/29 06:58:12;;;;;;;4.70;3.70;;;;;;;21.77;60.83;93604.63;5081321;28;20039;-62
2022/08/29 07:00:42;;;;;;;4.88;4.22;;;;;;;22.12;58.89;93603.72;5088656;28;20027;-63
2022/08/29 07:03:07;;;;;;;4.65;3.42;;;;;;;22.48;57.39;93600.75;5082869;28;20661;-62
2022/08/29 07:05:33;;;;;;;7.90;5.88;;;;;;;22.87;55.46;93600.66;5078355;28;20059;-64
2022/08/29 07:07:58;;;;;;;5.28;4.18;;;;;;;23.43;53.27;93602.06;5079286;28;20416;-61
2022/08/29 07:10:24;;;;;;;6.43;4.80;;;;;;;23.95;52.40;93585.56;5077445;28;20032;-63
2022/08/29 07:12:50;;;;;;;4.82;4.15;;;;;;;24.69;49.61;93602.34;5079242;28;20054;-63
2022/08/29 07:15:16;;;;;;;5.68;4.47;;;;;;;25.29;48.39;93603.56;5076051;28;20562;-64
2022/08/29 07:17:42;;;;;;;6.40;4.63;;;;;;;25.69;46.84;93601.66;5077953;28;20032;-64
2022/08/29 07:20:08;;;;;;;7.68;4.13;;;;;;;26.18;46.40;93593.75;5078942;28;20074;-63
2022/08/29 07:22:34;;;;;;;4.53;4.13;;;;;;;26.54;45.48;93600.06;5077259;28;20073;-62
2022/08/29 07:25:00;;;;;;;8.40;3.90;;;;;;;26.90;43.42;93602.13;5082105;28;20031;-64
2022/08/29 07:27:25;;;;;;;6.03;4.10;;;;;;;27.25;44.04;93597.66;5086170;28;20024;-62
2022/08/29 07:29:51;;;;;;;8.23;4.20;;;;;;;27.67;44.08;93579.28;5080635;28;20051;-62
2022/08/29 07:32:17;;;;;;;5.15;3.60;;;;;;;28.11;43.51;93597.03;5088878;28;20032;-65
2022/08/29 07:34:42;;;;;;;5.43;4.00;;;;;;;28.47;42.30;93592.44;5087972;28;20067;-60
2022/08/29 07:37:09;;;;;;;4.47;3.50;;;;;;;28.81;41.73;93592.72;5083487;28;20182;-66
2022/08/29 07:39:35;;;;;;;6.57;3.33;;;;;;;29.14;40.56;93592.97;5079945;28;20024;-61
2022/08/29 07:42:01;;;;;;;3.58;3.28;;;;;;;29.39;39.84;93599.34;5091672;28;20044;-57
2022/08/29 07:44:27;;;;;;;3.33;3.03;;;;;;;29.75;39.54;93594.59;5092299;28;20024;-61
2022/08/29 07:46:56;;;;;;;6.40;3.17;;;;;;;30.12;39.47;93591.25;5074429;28;20134;-61
2022/08/29 07:49:27;;;;;;;3.78;3.05;;;;;;;29.87;37.30;93589.94;5071727;28;20032;-63
2022/08/29 07:51:53;;;;;;;3.38;3.08;;;;;;;29.95;37.36;93583.72;5071887;28;20032;-56
2022/08/29 07:54:20;;;;;;;2.70;2.47;;;;;;;30.38;37.02;93591.16;5072304;28;20032;-60
2022/08/29 07:56:48;;;;;;;4.15;3.60;;;;;;;30.26;36.94;93588.72;5071697;28;20024;-60
2022/08/29 07:59:14;;;;;;;4.03;3.17;;;;;;;30.81;36.41;93595.63;5071288;28;20059;-64
2022/08/29 08:01:40;;;;;;;4.00;3.10;;;;;;;31.06;33.99;93580.47;5072373;28;20028;-53
2022/08/29 08:04:06;;;;;;;3.60;2.95;;;;;;;31.28;35.30;93589.47;5072584;28;20035;-67
2022/08/29 08:06:33;;;;;;;4.68;3.10;;;;;;;31.63;36.00;93593.69;5073484;28;20020;-68
2022/08/29 08:08:58;;;;;;;4.85;3.42;;;;;;;32.04;34.06;93582.31;5072796;28;20505;-68
2022/08/29 08:11:26;;;;;;;2.78;2.58;;;;;;;32.39;33.68;93588.53;5072196;28;20020;-67
2022/08/29 08:13:53;;;;;;;3.33;2.97;;;;;;;32.74;32.36;93581.91;5072355;28;20111;-62
2022/08/29 08:16:21;;;;;;;5.50;2.75;;;;;;;33.01;31.02;93589.44;5071992;28;20055;-53
2022/08/29 08:18:47;;;;;;;3.55;2.25;;;;;;;32.98;31.29;93590.81;5072104;28;20032;-55
2022/08/29 08:21:13;;;;;;;2.85;2.50;;;;;;;33.02;31.14;93570.13;5071960;28;20509;-58
2022/08/29 08:23:39;;;;;;;2.63;2.42;;;;;;;33.19;29.65;93591.78;5072254;28;20032;-51
2022/08/29 08:26:05;;;;;;;4.43;2.67;;;;;;;33.37;29.62;93584.16;5072207;28;20039;-51
2022/08/29 08:28:31;;;;;;;3.17;2.50;;;;;;;34.07;28.57;93575.53;5070752;28;20412;-59
2022/08/29 08:30:58;;;;;;;2.72;2.53;;;;;;;34.31;28.63;93586.47;5071870;28;20036;-58
2022/08/29 08:33:24;;;;;;;2.53;2.25;;;;;;;34.67;27.09;93586.03;5071809;28;20024;-63
2022/08/29 08:35:50;;;;;;;2.72;2.47;;;;;;;34.70;27.51;93578.84;5072098;28;20020;-63
2022/08/29 08:38:15;;;;;;;3.45;2.47;;;;;;;35.20;27.81;93587.72;5071702;28;20049;-60
2022/08/29 08:40:59;;;;;;;4.00;2.60;;;;;;;35.52;27.01;93590.72;5071730;28;20055;-58
2022/08/29 08:43:44;;;;;;;4.47;2.78;;;;;;;35.57;29.13;93589.31;5071943;28;20463;-62
2022/08/29 08:46:09;;;;;;;2.25;2.15;;;;;;;35.65;27.57;93589.31;5069987;28;20040;-49
2022/08/29 08:48:37;;;;;;;2.53;2.30;;;;;;;35.92;26.92;93583.63;5071523;28;20052;-58
2022/08/29 08:51:06;;;;;;;2.97;2.47;;;;;;;36.19;27.37;93588.69;5070195;28;20509;-56
2022/08/29 08:53:35;;;;;;;3.88;2.30;;;;;;;36.62;26.68;93582.94;5071379;28;20048;-58
2022/08/29 08:56:24;;;;;;;3.63;2.70;;;;;;;36.30;26.73;93580.78;5071252;28;20032;-59
2022/08/29 08:59:15;;;;;;;2.92;2.63;;;;;;;36.33;26.59;93582.22;5070005;28;20040;-57
2022/08/29 09:01:44;;;;;;;3.42;2.65;;;;;;;36.43;27.47;93582.22;5071588;28;20440;-57
2022/08/29 09:04:45;;;;;;;4.25;3.55;;;;;;;36.32;27.29;93586.53;5069840;28;20024;-58
2022/08/29 09:07:27;;;;;;;3.03;2.67;;;;;;;36.57;27.29;93579.34;5071331;28;20024;-66
2022/08/29 09:10:00;;;;;;;3.35;2.67;;;;;;;37.04;26.94;93586.44;5071097;28;20028;-57
2022/08/29 09:13:02;;;;;;;2.65;2.45;;;;;;;37.34;25.84;93582.00;5071049;28;20036;-61
2022/08/29 09:15:33;;;;;;;3.75;2.42;;;;;;;37.02;26.83;93580.69;5071172;28;20040;-60
2022/08/29 09:18:20;;;;;;;3.67;2.58;;;;;;;36.24;27.49;93581.50;5069899;28;20105;-56
2022/08/29 09:20:46;;;;;;;3.10;2.80;;;;;;;35.37;28.93;93572.00;5069726;28;20103;-58
2022/08/29 09:23:24;;;;;;;4.82;3.00;;;;;;;35.41;28.69;93589.22;5070981;28;20154;-64
2022/08/29 09:25:50;;;;;;;3.78;3.10;;;;;;;35.50;29.09;93570.63;5070822;28;20035;-64
2022/08/29 09:28:16;;;;;;;2.90;2.70;;;;;;;35.96;27.33;93577.91;5088488;28;20028;-60
2022/08/29 09:30:45;;;;;;;2.85;2.65;;;;;;;36.13;27.25;93579.34;5083506;28;20035;-62
2022/08/29 09:33:10;;;;;;;2.40;2.22;;;;;;;36.74;27.99;93582.91;5085754;28;20473;-60
2022/08/29 09:35:40;;;;;;;4.15;2.25;;;;;;;37.28;26.84;93576.25;5090703;28;20080;-58
2022/08/29 09:38:09;;;;;;;2.58;2.17;;;;;;;37.66;24.90;93579.72;5090579;28;20034;-54
2022/08/29 09:40:54;;;;;;;4.30;2.60;;;;;;;38.25;25.55;93580.03;5073195;28;20396;-61
2022/08/29 09:43:25;;;;;;;3.33;2.05;;;;;;;38.64;25.00;93578.25;5087799;28;20401;-57
2022/08/29 09:46:08;;;;;;;4.65;2.50;;;;;;;39.00;23.83;93579.34;5080030;28;20039;-66
2022/08/29 09:48:35;;;;;;;2.25;2.05;;;;;;;39.19;24.32;93578.44;5089098;28;20043;-62
2022/08/29 09:51:22;;;;;;;2.25;2.10;;;;;;;38.93;23.21;93583.75;5079871;28;20571;-62
2022/08/29 09:53:47;;;;;;;2.42;2.20;;;;;;;38.55;23.15;93579.78;5070184;28;20036;-63
2022/08/29 09:56:23;;;;;;;3.17;2.78;;;;;;;37.84;25.97;93576.00;5070131;28;20029;-62
2022/08/29 09:59:04;;;;;;;3.38;2.50;;;;;;;37.83;25.80;93577.47;5070298;28;20444;-59
2022/08/29 10:01:31;;;;;;;3.42;2.70;;;;;;;37.70;26.45;93558.78;5068767;28;20028;-59
2022/08/29 10:04:02;;;;;;;3.20;2.70;;;;;;;38.10;25.32;93567.16;5079077;28;20114;-61
2022/08/29 10:06:31;;;;;;;3.97;3.28;;;;;;;38.81;26.14;93572.34;5078935;28;20024;-63
2022/08/29 10:09:01;;;;;;;2.55;2.10;;;;;;;39.67;22.90;93571.34;5076526;28;20032;-62
2022/08/29 10:11:52;;;;;;;2.90;1.92;;;;;;;40.33;21.88;93563.13;5078117;28;20020;-60
2022/08/29 10:14:34;;;;;;;2.42;2.20;;;;;;;40.75;22.09;93559.53;5077327;28;20040;-62
2022/08/29 10:19:47;;;;;;;2.63;2.00;;;;;;;41.28;21.04;93550.59;5078978;28;20113;-60
2022/08/29 10:22:18;;;;;;;2.50;2.08;;;;;;;41.58;20.75;93541.94;5078316;28;20236;-64
2022/08/29 10:24:43;;;;;;;3.42;2.30;;;;;;;41.22;20.33;93541.97;5077453;28;20062;-61
2022/08/29 10:27:31;;;;;;;2.88;2.58;;;;;;;40.78;21.28;93544.25;5074466;28;20485;-59
2022/08/29 10:30:09;;;;;;;1.75;1.65;;;;;;;41.39;20.61;93537.31;5068717;28;20493;-59
2022/08/29 10:32:56;;;;;;;4.63;2.28;;;;;;;41.71;20.80;93527.22;5068640;28;20500;-60
2022/08/29 10:35:29;;;;;;;4.82;2.00;;;;;;;41.31;20.44;93529.50;5070065;28;20028;-59
2022/08/29 10:37:59;;;;;;;2.20;2.00;;;;;;;40.58;21.46;93521.47;5073446;28;20078;-64
2022/08/29 10:40:48;;;;;;;3.15;1.70;;;;;;;40.79;21.92;93519.63;5090182;28;20024;-58
2022/08/29 10:43:33;;;;;;;1.92;1.75;;;;;;;41.31;18.81;93514.28;5081104;28;20516;-64
2022/08/29 10:46:35;;;;;;;2.63;1.67;;;;;;;39.75;19.70;93527.84;5089584;28;20024;-63
2022/08/29 10:49:25;;;;;;;1.63;1.52;;;;;;;37.44;23.58;93525.09;5090198;28;20040;-56
2022/08/29 10:52:06;;;;;;;5.55;2.47;;;;;;;35.92;25.17;93529.75;5090125;28;20092;-59
2022/08/29 10:54:46;;;;;;;2.33;2.13;;;;;;;34.85;25.54;93525.84;5088668;28;20058;-59
2022/08/29 10:57:26;;;;;;;3.95;3.03;;;;;;;33.81;27.68;93526.59;5089918;28;20111;-62
2022/08/29 11:00:03;;;;;;;3.70;2.50;;;;;;;33.35;28.47;93531.88;5091579;28;20027;-60
2022/08/29 11:02:36;;;;;;;2.97;2.67;;;;;;;32.43;29.58;93534.28;5086513;28;20033;-62
2022/08/29 11:05:09;;;;;;;2.40;2.22;;;;;;;31.22;31.35;93521.63;5081020;28;20035;-58
2022/08/29 11:08:09;;;;;;;2.60;2.38;;;;;;;30.70;32.88;93527.03;5072646;28;20028;-62
2022/08/29 11:10:42;;;;;;;3.15;2.90;;;;;;;30.44;32.79;93517.19;5044874;28;20064;-61
2022/08/29 11:13:29;;;;;;;2.50;2.30;;;;;;;30.25;33.43;93518.19;5073359;28;20020;-61
2022/08/29 11:16:42;;;;;;;4.78;2.83;;;;;;;30.76;32.96;93511.41;5073173;28;20074;-61
2022/08/29 11:19:18;;;;;;;4.43;2.15;;;;;;;31.47;31.02;93504.97;5068185;28;20043;-58
2022/08/29 11:22:00;;;;;;;2.25;2.10;;;;;;;32.03;30.49;93503.03;5094822;28;20036;-59
2022/08/29 11:24:28;;;;;;;3.13;1.85;;;;;;;32.11;28.81;93492.44;5100347;28;20032;-59
2022/08/29 11:27:09;;;;;;;3.38;2.40;;;;;;;31.73;28.72;93494.66;5092175;28;20485;-64
2022/08/29 11:29:51;;;;;;;3.30;2.55;;;;;;;31.06;29.88;93472.81;5090156;28;20444;-63
2022/08/29 11:32:28;;;;;;;2.20;2.00;;;;;;;30.87;30.27;93493.13;5080513;28;20097;-64
2022/08/29 11:35:17;;;;;;;4.40;2.72;;;;;;;30.57;31.55;93496.81;5084123;28;20032;-62
2022/08/29 11:38:12;;;;;;;2.72;2.53;;;;;;;30.26;31.99;93491.13;5072869;28;20040;-52
2022/08/29 11:40:57;;;;;;;2.35;2.15;;;;;;;29.78;31.79;93480.13;5086769;28;20488;-51
2022/08/29 11:43:54;;;;;;;3.97;2.38;;;;;;;29.69;33.94;93518.31;5084946;28;20041;-57
2022/08/29 11:46:49;;;;;;;2.83;2.50;;;;;;;29.50;33.56;93527.78;5079226;28;20501;-60
2022/08/29 11:49:27;;;;;;;2.58;2.35;;;;;;;29.42;34.90;93527.59;5076408;28;20032;-49
2022/08/29 11:51:57;;;;;;;3.42;2.25;;;;;;;29.34;34.31;93524.56;5083494;28;20039;-60
2022/08/29 11:54:23;;;;;;;2.25;2.05;;;;;;;29.22;32.62;93524.97;5081882;28;20032;-49
2022/08/29 11:57:08;;;;;;;2.65;2.10;;;;;;;28.98;33.05;93540.63;5087615;28;20823;-60
2022/08/29 11:59:53;;;;;;;2.88;2.67;;;;;;;28.80;36.70;93549.41;5061454;28;20041;-58
2022/08/29 12:02:30;;;;;;;4.82;2.58;;;;;;;28.29;40.73;93538.66;5081299;28;20032;-57
2022/08/29 12:05:02;;;;;;;2.97;2.53;;;;;;;28.12;43.82;93533.16;5072463;28;20056;-58
2022/08/29 12:07:47;;;;;;;3.78;3.03;;;;;;;28.01;43.00;93542.75;5074038;28;20058;-58
2022/08/29 12:10:19;;;;;;;3.92;3.25;;;;;;;27.90;44.68;93555.16;5086764;28;20066;-58
2022/08/29 12:12:52;;;;;;;4.72;2.75;;;;;;;27.52;47.70;93555.41;5087535;28;20549;-59
2022/08/29 12:15:33;;;;;;;4.22;3.45;;;;;;;27.28;48.75;93568.75;5083355;28;20111;-58